sensor_id;sensor_type;location;lat;lon;timestamp;temperature;humidity
45283;DHT22;31023;44.994;1.796;2023-09-30T00:00:57;18.20;99.90
45283;DHT22;31023;44.994;1.796;2023-09-30T00:03:23;18.20;99.90
45283;DHT22;31023;44.994;1.796;2023-09-30T00:05:48;18.20;99.90
45283;DHT22;31023;44.994;1.796;2023-09-30T00:08:14;18.20;99.90
45283;DHT22;31023;44.994;1.796;2023-09-30T00:10:40;18.10;99.90
45283;DHT22;31023;44.994;1.796;2023-09-30T00:13:06;18.10;99.90
45283;DHT22;31023;44.994;1.796;2023-09-30T00:15:35;18.10;99.90
45283;DHT22;31023;44.994;1.796;2023-09-30T00:18:00;18.00;99.90
45283;DHT22;31023;44.994;1.796;2023-09-30T00:20:27;18.00;99.90
45283;DHT22;31023;44.994;1.796;2023-09-30T00:22:53;18.00;99.90
45283;DHT22;31023;44.994;1.796;2023-09-30T00:25:19;18.10;99.90
45283;DHT22;31023;44.994;1.796;2023-09-30T00:27:47;18.20;99.90
45283;DHT22;31023;44.994;1.796;2023-09-30T00:30:12;18.10;99.90
45283;DHT22;31023;44.994;1.796;2023-09-30T00:32:38;18.10;99.90
45283;DHT22;31023;44.994;1.796;2023-09-30T00:35:05;18.10;99.90
45283;DHT22;31023;44.994;1.796;2023-09-30T00:37:40;18.00;99.90
45283;DHT22;31023;44.994;1.796;2023-09-30T00:40:07;18.10;99.90
45283;DHT22;31023;44.994;1.796;2023-09-30T00:42:33;18.00;99.90
45283;DHT22;31023;44.994;1.796;2023-09-30T00:44:59;18.00;99.90
45283;DHT22;31023;44.994;1.796;2023-09-30T00:47:26;18.00;99.90
45283;DHT22;31023;44.994;1.796;2023-09-30T00:49:51;17.90;99.90
45283;DHT22;31023;44.994;1.796;2023-09-30T00:52:19;17.80;99.90
45283;DHT22;31023;44.994;1.796;2023-09-30T00:54:46;17.80;99.90
45283;DHT22;31023;44.994;1.796;2023-09-30T00:57:13;17.80;99.90
45283;DHT22;31023;44.994;1.796;2023-09-30T00:59:40;17.70;99.90
45283;DHT22;31023;44.994;1.796;2023-09-30T01:02:06;17.70;99.90
45283;DHT22;31023;44.994;1.796;2023-09-30T01:04:33;17.50;99.90
45283;DHT22;31023;44.994;1.796;2023-09-30T01:06:59;17.50;99.90
45283;DHT22;31023;44.994;1.796;2023-09-30T01:09:25;17.50;99.90
45283;DHT22;31023;44.994;1.796;2023-09-30T01:11:51;17.60;99.90
45283;DHT22;31023;44.994;1.796;2023-09-30T01:14:27;17.50;99.90
45283;DHT22;31023;44.994;1.796;2023-09-30T01:16:54;17.40;99.90
45283;DHT22;31023;44.994;1.796;2023-09-30T01:19:19;17.40;99.90
45283;DHT22;31023;44.994;1.796;2023-09-30T01:21:45;17.40;99.90
45283;DHT22;31023;44.994;1.796;2023-09-30T01:24:14;17.30;99.90
45283;DHT22;31023;44.994;1.796;2023-09-30T01:26:40;17.20;99.90
45283;DHT22;31023;44.994;1.796;2023-09-30T01:29:08;17.20;99.90
45283;DHT22;31023;44.994;1.796;2023-09-30T01:31:37;17.20;99.90
45283;DHT22;31023;44.994;1.796;2023-09-30T01:34:03;17.10;99.90
45283;DHT22;31023;44.994;1.796;2023-09-30T01:36:29;17.00;99.90
45283;DHT22;31023;44.994;1.796;2023-09-30T01:38:55;17.00;99.90
45283;DHT22;31023;44.994;1.796;2023-09-30T01:41:21;17.00;99.90
45283;DHT22;31023;44.994;1.796;2023-09-30T01:43:46;17.10;99.90
45283;DHT22;31023;44.994;1.796;2023-09-30T01:46:12;17.10;99.90
45283;DHT22;31023;44.994;1.796;2023-09-30T01:48:38;17.10;99.90
45283;DHT22;31023;44.994;1.796;2023-09-30T01:51:04;17.10;99.90
45283;DHT22;31023;44.994;1.796;2023-09-30T01:53:29;17.10;99.90
45283;DHT22;31023;44.994;1.796;2023-09-30T01:55:55;17.10;99.90
45283;DHT22;31023;44.994;1.796;2023-09-30T01:58:21;17.10;99.90
45283;DHT22;31023;44.994;1.796;2023-09-30T02:00:47;17.10;99.90
45283;DHT22;31023;44.994;1.796;2023-09-30T02:03:12;17.10;99.90
45283;DHT22;31023;44.994;1.796;2023-09-30T02:05:39;17.00;99.90
45283;DHT22;31023;44.994;1.796;2023-09-30T02:08:05;17.00;99.90
45283;DHT22;31023;44.994;1.796;2023-09-30T02:10:32;17.00;99.90
45283;DHT22;31023;44.994;1.796;2023-09-30T02:12:59;16.90;99.90
45283;DHT22;31023;44.994;1.796;2023-09-30T02:15:27;16.80;99.90
45283;DHT22;31023;44.994;1.796;2023-09-30T02:17:53;16.80;99.90
45283;DHT22;31023;44.994;1.796;2023-09-30T02:20:19;16.80;99.90
45283;DHT22;31023;44.994;1.796;2023-09-30T02:22:47;16.80;99.90
45283;DHT22;31023;44.994;1.796;2023-09-30T02:25:14;16.90;99.90
45283;DHT22;31023;44.994;1.796;2023-09-30T02:27:41;16.90;99.90
45283;DHT22;31023;44.994;1.796;2023-09-30T02:30:07;16.90;99.90
45283;DHT22;31023;44.994;1.796;2023-09-30T02:32:33;16.80;99.90
45283;DHT22;31023;44.994;1.796;2023-09-30T02:34:59;16.80;99.90
45283;DHT22;31023;44.994;1.796;2023-09-30T02:37:24;16.80;99.90
45283;DHT22;31023;44.994;1.796;2023-09-30T02:39:51;16.80;99.90
45283;DHT22;31023;44.994;1.796;2023-09-30T02:42:16;16.70;99.90
45283;DHT22;31023;44.994;1.796;2023-09-30T02:44:42;16.70;99.90
45283;DHT22;31023;44.994;1.796;2023-09-30T02:47:08;16.60;99.90
45283;DHT22;31023;44.994;1.796;2023-09-30T02:49:35;16.70;99.90
45283;DHT22;31023;44.994;1.796;2023-09-30T02:52:01;16.70;99.90
45283;DHT22;31023;44.994;1.796;2023-09-30T02:54:26;16.60;99.90
45283;DHT22;31023;44.994;1.796;2023-09-30T02:56:52;16.60;99.90
45283;DHT22;31023;44.994;1.796;2023-09-30T02:59:20;16.60;99.90
45283;DHT22;31023;44.994;1.796;2023-09-30T03:01:47;16.60;99.90
45283;DHT22;31023;44.994;1.796;2023-09-30T03:04:13;16.60;99.90
45283;DHT22;31023;44.994;1.796;2023-09-30T03:06:39;16.70;99.90
45283;DHT22;31023;44.994;1.796;2023-09-30T03:09:05;16.60;99.90
45283;DHT22;31023;44.994;1.796;2023-09-30T03:11:31;16.60;99.90
45283;DHT22;31023;44.994;1.796;2023-09-30T03:13:57;16.60;99.90
45283;DHT22;31023;44.994;1.796;2023-09-30T03:16:24;16.60;99.90
45283;DHT22;31023;44.994;1.796;2023-09-30T03:18:50;16.60;99.90
45283;DHT22;31023;44.994;1.796;2023-09-30T03:21:16;16.50;99.90
45283;DHT22;31023;44.994;1.796;2023-09-30T03:23:42;16.60;99.90
45283;DHT22;31023;44.994;1.796;2023-09-30T03:26:08;16.60;99.90
45283;DHT22;31023;44.994;1.796;2023-09-30T03:28:37;16.60;99.90
45283;DHT22;31023;44.994;1.796;2023-09-30T03:31:04;16.50;99.90
45283;DHT22;31023;44.994;1.796;2023-09-30T03:33:33;16.40;99.90
45283;DHT22;31023;44.994;1.796;2023-09-30T03:35:59;16.40;99.90
45283;DHT22;31023;44.994;1.796;2023-09-30T03:38:28;16.40;99.90
45283;DHT22;31023;44.994;1.796;2023-09-30T03:40:54;16.40;99.90
45283;DHT22;31023;44.994;1.796;2023-09-30T03:43:24;16.40;99.90
45283;DHT22;31023;44.994;1.796;2023-09-30T03:45:50;16.40;99.90
45283;DHT22;31023;44.994;1.796;2023-09-30T03:48:16;16.40;99.90
45283;DHT22;31023;44.994;1.796;2023-09-30T03:50:44;16.50;99.90
45283;DHT22;31023;44.994;1.796;2023-09-30T03:53:09;16.50;99.90
45283;DHT22;31023;44.994;1.796;2023-09-30T03:55:35;16.50;99.90
45283;DHT22;31023;44.994;1.796;2023-09-30T03:58:02;16.50;99.90
45283;DHT22;31023;44.994;1.796;2023-09-30T04:00:29;16.50;99.90
45283;DHT22;31023;44.994;1.796;2023-09-30T04:02:54;16.40;99.90
45283;DHT22;31023;44.994;1.796;2023-09-30T04:05:24;16.40;99.90
45283;DHT22;31023;44.994;1.796;2023-09-30T04:08:01;16.30;99.90
45283;DHT22;31023;44.994;1.796;2023-09-30T04:10:27;16.30;99.90
45283;DHT22;31023;44.994;1.796;2023-09-30T04:12:55;16.30;99.90
45283;DHT22;31023;44.994;1.796;2023-09-30T04:15:21;16.30;99.90
45283;DHT22;31023;44.994;1.796;2023-09-30T04:17:48;16.20;99.90
45283;DHT22;31023;44.994;1.796;2023-09-30T04:20:14;16.20;99.90
45283;DHT22;31023;44.994;1.796;2023-09-30T04:22:48;16.20;99.90
45283;DHT22;31023;44.994;1.796;2023-09-30T04:25:17;16.10;99.90
45283;DHT22;31023;44.994;1.796;2023-09-30T04:27:44;16.10;99.90
45283;DHT22;31023;44.994;1.796;2023-09-30T04:30:10;16.10;99.90
45283;DHT22;31023;44.994;1.796;2023-09-30T04:32:37;16.00;99.90
45283;DHT22;31023;44.994;1.796;2023-09-30T04:35:04;16.00;99.90
45283;DHT22;31023;44.994;1.796;2023-09-30T04:37:30;16.00;99.90
45283;DHT22;31023;44.994;1.796;2023-09-30T04:39:56;15.90;99.90
45283;DHT22;31023;44.994;1.796;2023-09-30T04:42:24;15.90;99.90
45283;DHT22;31023;44.994;1.796;2023-09-30T04:44:52;15.90;99.90
45283;DHT22;31023;44.994;1.796;2023-09-30T04:47:18;15.90;99.90
45283;DHT22;31023;44.994;1.796;2023-09-30T04:49:44;15.80;99.90
45283;DHT22;31023;44.994;1.796;2023-09-30T04:52:10;15.70;99.90
45283;DHT22;31023;44.994;1.796;2023-09-30T04:54:36;15.70;99.90
45283;DHT22;31023;44.994;1.796;2023-09-30T04:57:02;15.70;99.90
45283;DHT22;31023;44.994;1.796;2023-09-30T04:59:28;15.70;99.90
45283;DHT22;31023;44.994;1.796;2023-09-30T05:01:55;15.70;99.90
45283;DHT22;31023;44.994;1.796;2023-09-30T05:04:22;15.70;99.90
45283;DHT22;31023;44.994;1.796;2023-09-30T05:06:49;15.70;99.90
45283;DHT22;31023;44.994;1.796;2023-09-30T05:09:15;15.70;99.90
45283;DHT22;31023;44.994;1.796;2023-09-30T05:11:41;15.70;99.90
45283;DHT22;31023;44.994;1.796;2023-09-30T05:14:07;15.70;99.90
45283;DHT22;31023;44.994;1.796;2023-09-30T05:16:32;15.60;99.90
45283;DHT22;31023;44.994;1.796;2023-09-30T05:18:58;15.60;99.90
45283;DHT22;31023;44.994;1.796;2023-09-30T05:21:24;15.60;99.90
45283;DHT22;31023;44.994;1.796;2023-09-30T05:23:50;15.60;99.90
45283;DHT22;31023;44.994;1.796;2023-09-30T05:26:15;15.60;99.90
45283;DHT22;31023;44.994;1.796;2023-09-30T05:28:42;15.60;99.90
45283;DHT22;31023;44.994;1.796;2023-09-30T05:31:08;15.60;99.90
45283;DHT22;31023;44.994;1.796;2023-09-30T05:33:34;15.50;99.90
45283;DHT22;31023;44.994;1.796;2023-09-30T05:36:01;15.50;99.90
45283;DHT22;31023;44.994;1.796;2023-09-30T05:38:28;15.50;99.90
45283;DHT22;31023;44.994;1.796;2023-09-30T05:40:54;15.50;99.90
45283;DHT22;31023;44.994;1.796;2023-09-30T05:43:20;15.50;99.90
45283;DHT22;31023;44.994;1.796;2023-09-30T05:45:48;15.50;99.90
45283;DHT22;31023;44.994;1.796;2023-09-30T05:48:15;15.40;99.90
45283;DHT22;31023;44.994;1.796;2023-09-30T05:50:41;15.50;99.90
45283;DHT22;31023;44.994;1.796;2023-09-30T05:53:08;15.50;99.90
45283;DHT22;31023;44.994;1.796;2023-09-30T05:55:36;15.40;99.90
45283;DHT22;31023;44.994;1.796;2023-09-30T05:58:02;15.40;99.90
45283;DHT22;31023;44.994;1.796;2023-09-30T06:00:28;15.40;99.90
45283;DHT22;31023;44.994;1.796;2023-09-30T06:02:56;15.40;99.90
45283;DHT22;31023;44.994;1.796;2023-09-30T06:05:22;15.70;99.90
45283;DHT22;31023;44.994;1.796;2023-09-30T06:07:48;15.80;99.90
45283;DHT22;31023;44.994;1.796;2023-09-30T06:10:14;16.00;99.90
45283;DHT22;31023;44.994;1.796;2023-09-30T06:12:47;16.30;99.90
45283;DHT22;31023;44.994;1.796;2023-09-30T06:15:14;16.60;99.90
45283;DHT22;31023;44.994;1.796;2023-09-30T06:17:41;16.80;99.90
45283;DHT22;31023;44.994;1.796;2023-09-30T06:20:07;17.20;99.90
45283;DHT22;31023;44.994;1.796;2023-09-30T06:22:34;17.40;99.90
45283;DHT22;31023;44.994;1.796;2023-09-30T06:25:00;17.60;99.90
45283;DHT22;31023;44.994;1.796;2023-09-30T06:27:27;17.60;99.90
45283;DHT22;31023;44.994;1.796;2023-09-30T06:29:53;17.60;99.90
45283;DHT22;31023;44.994;1.796;2023-09-30T06:32:20;17.90;99.90
45283;DHT22;31023;44.994;1.796;2023-09-30T06:34:45;18.20;99.90
45283;DHT22;31023;44.994;1.796;2023-09-30T06:37:11;18.50;99.90
45283;DHT22;31023;44.994;1.796;2023-09-30T06:39:37;18.80;99.90
45283;DHT22;31023;44.994;1.796;2023-09-30T06:42:03;19.30;99.90
45283;DHT22;31023;44.994;1.796;2023-09-30T06:44:29;20.00;99.90
45283;DHT22;31023;44.994;1.796;2023-09-30T06:46:56;20.20;98.60
45283;DHT22;31023;44.994;1.796;2023-09-30T06:49:22;20.00;98.20
45283;DHT22;31023;44.994;1.796;2023-09-30T06:51:48;20.10;98.10
45283;DHT22;31023;44.994;1.796;2023-09-30T06:54:14;20.20;98.00
45283;DHT22;31023;44.994;1.796;2023-09-30T06:56:39;19.90;99.70
45283;DHT22;31023;44.994;1.796;2023-09-30T06:59:06;20.50;98.40
45283;DHT22;31023;44.994;1.796;2023-09-30T07:01:32;21.40;96.30
45283;DHT22;31023;44.994;1.796;2023-09-30T07:03:58;21.90;95.00
45283;DHT22;31023;44.994;1.796;2023-09-30T07:06:24;21.90;94.60
45283;DHT22;31023;44.994;1.796;2023-09-30T07:08:51;22.20;93.90
45283;DHT22;31023;44.994;1.796;2023-09-30T07:11:16;22.40;93.20
45283;DHT22;31023;44.994;1.796;2023-09-30T07:13:42;22.70;92.90
45283;DHT22;31023;44.994;1.796;2023-09-30T07:16:08;22.70;92.20
45283;DHT22;31023;44.994;1.796;2023-09-30T07:18:34;22.40;92.60
45283;DHT22;31023;44.994;1.796;2023-09-30T07:20:59;22.50;92.40
45283;DHT22;31023;44.994;1.796;2023-09-30T07:23:27;23.10;91.40
45283;DHT22;31023;44.994;1.796;2023-09-30T07:25:55;22.80;91.50
45283;DHT22;31023;44.994;1.796;2023-09-30T07:28:20;22.80;91.50
45283;DHT22;31023;44.994;1.796;2023-09-30T07:30:46;22.70;91.50
45283;DHT22;31023;44.994;1.796;2023-09-30T07:33:12;22.60;91.60
45283;DHT22;31023;44.994;1.796;2023-09-30T07:35:37;22.90;91.30
45283;DHT22;31023;44.994;1.796;2023-09-30T07:38:04;23.20;90.40
45283;DHT22;31023;44.994;1.796;2023-09-30T07:40:30;24.20;90.00
45283;DHT22;31023;44.994;1.796;2023-09-30T07:42:57;24.00;88.60
45283;DHT22;31023;44.994;1.796;2023-09-30T07:45:23;23.30;90.20
45283;DHT22;31023;44.994;1.796;2023-09-30T07:47:48;23.40;87.10
45283;DHT22;31023;44.994;1.796;2023-09-30T07:50:15;23.80;87.50
45283;DHT22;31023;44.994;1.796;2023-09-30T07:52:40;23.40;87.20
45283;DHT22;31023;44.994;1.796;2023-09-30T07:55:08;23.50;87.40
45283;DHT22;31023;44.994;1.796;2023-09-30T07:57:34;23.80;86.40
45283;DHT22;31023;44.994;1.796;2023-09-30T08:00:00;23.80;85.70
45283;DHT22;31023;44.994;1.796;2023-09-30T08:02:28;24.70;82.80
45283;DHT22;31023;44.994;1.796;2023-09-30T08:04:59;25.20;82.20
45283;DHT22;31023;44.994;1.796;2023-09-30T08:07:25;25.70;81.10
45283;DHT22;31023;44.994;1.796;2023-09-30T08:09:51;25.60;80.60
45283;DHT22;31023;44.994;1.796;2023-09-30T08:12:16;25.30;81.20
45283;DHT22;31023;44.994;1.796;2023-09-30T08:14:42;25.50;80.20
45283;DHT22;31023;44.994;1.796;2023-09-30T08:17:10;25.70;78.90
45283;DHT22;31023;44.994;1.796;2023-09-30T08:19:37;25.90;79.90
45283;DHT22;31023;44.994;1.796;2023-09-30T08:22:02;26.20;79.30
45283;DHT22;31023;44.994;1.796;2023-09-30T08:24:32;25.70;78.80
45283;DHT22;31023;44.994;1.796;2023-09-30T08:26:57;26.00;79.60
45283;DHT22;31023;44.994;1.796;2023-09-30T08:29:23;26.60;77.60
45283;DHT22;31023;44.994;1.796;2023-09-30T08:31:49;26.70;77.50
45283;DHT22;31023;44.994;1.796;2023-09-30T08:34:16;27.60;74.90
45283;DHT22;31023;44.994;1.796;2023-09-30T08:36:43;26.90;74.80
45283;DHT22;31023;44.994;1.796;2023-09-30T08:39:08;26.80;72.10
45283;DHT22;31023;44.994;1.796;2023-09-30T08:41:36;27.40;73.80
45283;DHT22;31023;44.994;1.796;2023-09-30T08:44:03;26.70;72.20
45283;DHT22;31023;44.994;1.796;2023-09-30T08:46:35;27.90;72.00
45283;DHT22;31023;44.994;1.796;2023-09-30T08:49:02;27.90;71.70
45283;DHT22;31023;44.994;1.796;2023-09-30T08:51:29;28.10;70.20
45283;DHT22;31023;44.994;1.796;2023-09-30T08:53:56;27.60;71.30
45283;DHT22;31023;44.994;1.796;2023-09-30T08:56:30;27.60;71.20
45283;DHT22;31023;44.994;1.796;2023-09-30T08:58:59;27.10;70.30
45283;DHT22;31023;44.994;1.796;2023-09-30T09:01:27;27.00;70.60
45283;DHT22;31023;44.994;1.796;2023-09-30T09:03:54;27.50;71.20
45283;DHT22;31023;44.994;1.796;2023-09-30T09:06:24;28.30;71.70
45283;DHT22;31023;44.994;1.796;2023-09-30T09:08:50;29.00;68.70
45283;DHT22;31023;44.994;1.796;2023-09-30T09:11:17;28.60;68.90
45283;DHT22;31023;44.994;1.796;2023-09-30T09:13:49;29.00;71.20
45283;DHT22;31023;44.994;1.796;2023-09-30T09:16:21;29.00;68.00
45283;DHT22;31023;44.994;1.796;2023-09-30T09:18:48;29.10;68.00
45283;DHT22;31023;44.994;1.796;2023-09-30T09:21:19;29.30;66.30
45283;DHT22;31023;44.994;1.796;2023-09-30T09:23:50;28.90;67.20
45283;DHT22;31023;44.994;1.796;2023-09-30T09:26:29;28.70;69.80
45283;DHT22;31023;44.994;1.796;2023-09-30T09:29:03;29.10;68.10
45283;DHT22;31023;44.994;1.796;2023-09-30T09:31:32;29.00;67.90
45283;DHT22;31023;44.994;1.796;2023-09-30T09:34:00;29.10;67.80
45283;DHT22;31023;44.994;1.796;2023-09-30T09:36:39;29.50;65.60
45283;DHT22;31023;44.994;1.796;2023-09-30T09:39:06;29.10;66.20
45283;DHT22;31023;44.994;1.796;2023-09-30T09:41:32;29.30;66.20
45283;DHT22;31023;44.994;1.796;2023-09-30T09:43:59;28.60;65.30
45283;DHT22;31023;44.994;1.796;2023-09-30T09:46:27;28.10;66.40
45283;DHT22;31023;44.994;1.796;2023-09-30T09:48:54;27.30;67.60
45283;DHT22;31023;44.994;1.796;2023-09-30T09:51:23;26.90;68.30
45283;DHT22;31023;44.994;1.796;2023-09-30T09:53:50;27.10;70.00
45283;DHT22;31023;44.994;1.796;2023-09-30T09:56:17;26.60;69.20
45283;DHT22;31023;44.994;1.796;2023-09-30T09:58:44;26.30;67.70
45283;DHT22;31023;44.994;1.796;2023-09-30T10:01:13;26.50;69.10
45283;DHT22;31023;44.994;1.796;2023-09-30T10:03:39;26.30;69.00
45283;DHT22;31023;44.994;1.796;2023-09-30T10:06:05;26.20;68.20
45283;DHT22;31023;44.994;1.796;2023-09-30T10:08:32;26.00;68.50
45283;DHT22;31023;44.994;1.796;2023-09-30T10:10:59;25.90;68.90
45283;DHT22;31023;44.994;1.796;2023-09-30T10:13:53;26.20;71.50
45283;DHT22;31023;44.994;1.796;2023-09-30T10:16:50;25.90;68.50
45283;DHT22;31023;44.994;1.796;2023-09-30T10:19:18;25.70;69.20
45283;DHT22;31023;44.994;1.796;2023-09-30T10:22:20;25.90;70.20
45283;DHT22;31023;44.994;1.796;2023-09-30T10:24:50;25.80;69.20
45283;DHT22;31023;44.994;1.796;2023-09-30T10:35:19;26.00;70.20
45283;DHT22;31023;44.994;1.796;2023-09-30T10:37:45;25.90;71.10
45283;DHT22;31023;44.994;1.796;2023-09-30T10:40:26;25.60;70.60
45283;DHT22;31023;44.994;1.796;2023-09-30T10:42:52;25.70;71.60
45283;DHT22;31023;44.994;1.796;2023-09-30T10:51:00;26.30;71.20
45283;DHT22;31023;44.994;1.796;2023-09-30T10:53:29;26.20;73.10
45283;DHT22;31023;44.994;1.796;2023-09-30T10:55:57;26.10;72.30
45283;DHT22;31023;44.994;1.796;2023-09-30T10:58:39;26.30;73.60
45283;DHT22;31023;44.994;1.796;2023-09-30T11:01:04;26.60;76.50
45283;DHT22;31023;44.994;1.796;2023-09-30T11:03:30;26.30;72.60
45283;DHT22;31023;44.994;1.796;2023-09-30T11:05:56;26.30;75.00
45283;DHT22;31023;44.994;1.796;2023-09-30T11:08:22;26.30;72.00
45283;DHT22;31023;44.994;1.796;2023-09-30T11:10:51;25.90;73.00
45283;DHT22;31023;44.994;1.796;2023-09-30T11:13:19;26.20;74.50
45283;DHT22;31023;44.994;1.796;2023-09-30T11:15:45;25.80;73.10
45283;DHT22;31023;44.994;1.796;2023-09-30T11:18:15;26.00;73.00
45283;DHT22;31023;44.994;1.796;2023-09-30T11:20:42;25.90;74.80
45283;DHT22;31023;44.994;1.796;2023-09-30T11:23:09;26.30;76.00
45283;DHT22;31023;44.994;1.796;2023-09-30T11:25:35;26.70;74.70
45283;DHT22;31023;44.994;1.796;2023-09-30T11:28:15;27.00;74.70
45283;DHT22;31023;44.994;1.796;2023-09-30T11:31:00;26.40;74.80
45283;DHT22;31023;44.994;1.796;2023-09-30T11:33:27;27.00;75.60
45283;DHT22;31023;44.994;1.796;2023-09-30T11:36:04;27.20;73.80
45283;DHT22;31023;44.994;1.796;2023-09-30T11:38:32;27.10;77.30
45283;DHT22;31023;44.994;1.796;2023-09-30T11:40:59;26.60;74.60
45283;DHT22;31023;44.994;1.796;2023-09-30T11:43:26;26.50;76.10
45283;DHT22;31023;44.994;1.796;2023-09-30T11:45:51;26.00;74.70
45283;DHT22;31023;44.994;1.796;2023-09-30T11:48:18;25.50;73.20
45283;DHT22;31023;44.994;1.796;2023-09-30T11:50:48;25.40;73.20
45283;DHT22;31023;44.994;1.796;2023-09-30T11:53:16;25.10;74.00
45283;DHT22;31023;44.994;1.796;2023-09-30T11:55:42;25.20;75.20
45283;DHT22;31023;44.994;1.796;2023-09-30T11:58:08;25.20;73.10
45283;DHT22;31023;44.994;1.796;2023-09-30T12:00:35;25.30;72.80
45283;DHT22;31023;44.994;1.796;2023-09-30T12:03:00;25.20;72.30
45283;DHT22;31023;44.994;1.796;2023-09-30T12:05:26;25.30;72.00
45283;DHT22;31023;44.994;1.796;2023-09-30T12:07:54;25.30;74.70
45283;DHT22;31023;44.994;1.796;2023-09-30T12:10:20;25.20;72.40
45283;DHT22;31023;44.994;1.796;2023-09-30T12:12:45;25.00;73.00
45283;DHT22;31023;44.994;1.796;2023-09-30T12:15:11;24.80;73.00
45283;DHT22;31023;44.994;1.796;2023-09-30T12:17:37;24.80;73.70
45283;DHT22;31023;44.994;1.796;2023-09-30T12:20:05;24.90;75.20
45283;DHT22;31023;44.994;1.796;2023-09-30T12:22:32;24.90;73.40
45283;DHT22;31023;44.994;1.796;2023-09-30T12:24:58;25.10;73.60
45283;DHT22;31023;44.994;1.796;2023-09-30T12:27:24;25.20;78.30
45283;DHT22;31023;44.994;1.796;2023-09-30T12:29:50;25.30;77.60
45283;DHT22;31023;44.994;1.796;2023-09-30T12:32:16;25.40;77.00
45283;DHT22;31023;44.994;1.796;2023-09-30T12:34:41;25.30;75.60
45283;DHT22;31023;44.994;1.796;2023-09-30T12:37:07;25.30;76.60
45283;DHT22;31023;44.994;1.796;2023-09-30T12:39:33;25.40;77.40
45283;DHT22;31023;44.994;1.796;2023-09-30T12:41:58;25.30;79.00
45283;DHT22;31023;44.994;1.796;2023-09-30T12:44:24;25.20;78.80
45283;DHT22;31023;44.994;1.796;2023-09-30T12:46:50;25.20;77.90
45283;DHT22;31023;44.994;1.796;2023-09-30T12:49:16;25.20;76.50
45283;DHT22;31023;44.994;1.796;2023-09-30T12:51:41;25.20;78.20
45283;DHT22;31023;44.994;1.796;2023-09-30T12:54:07;25.30;75.40
45283;DHT22;31023;44.994;1.796;2023-09-30T12:56:33;25.30;76.40
45283;DHT22;31023;44.994;1.796;2023-09-30T12:58:59;25.20;77.90
45283;DHT22;31023;44.994;1.796;2023-09-30T13:01:25;25.20;72.80
45283;DHT22;31023;44.994;1.796;2023-09-30T13:03:51;25.00;71.40
45283;DHT22;31023;44.994;1.796;2023-09-30T13:06:18;24.90;70.50
45283;DHT22;31023;44.994;1.796;2023-09-30T13:08:44;24.90;70.60
45283;DHT22;31023;44.994;1.796;2023-09-30T13:11:10;24.90;73.20
45283;DHT22;31023;44.994;1.796;2023-09-30T13:13:37;24.70;70.30
45283;DHT22;31023;44.994;1.796;2023-09-30T13:16:03;24.80;73.90
45283;DHT22;31023;44.994;1.796;2023-09-30T13:18:35;24.90;72.40
45283;DHT22;31023;44.994;1.796;2023-09-30T13:21:02;24.80;74.30
45283;DHT22;31023;44.994;1.796;2023-09-30T13:23:29;24.90;72.40
45283;DHT22;31023;44.994;1.796;2023-09-30T13:25:55;24.80;72.60
45283;DHT22;31023;44.994;1.796;2023-09-30T13:28:21;24.80;75.00
45283;DHT22;31023;44.994;1.796;2023-09-30T13:30:47;24.80;73.10
45283;DHT22;31023;44.994;1.796;2023-09-30T13:33:13;24.80;73.30
45283;DHT22;31023;44.994;1.796;2023-09-30T13:35:39;24.70;72.10
45283;DHT22;31023;44.994;1.796;2023-09-30T13:38:05;24.80;73.70
45283;DHT22;31023;44.994;1.796;2023-09-30T13:40:30;24.80;71.80
45283;DHT22;31023;44.994;1.796;2023-09-30T13:42:56;24.80;71.90
45283;DHT22;31023;44.994;1.796;2023-09-30T13:45:24;24.70;74.20
45283;DHT22;31023;44.994;1.796;2023-09-30T13:47:49;24.80;75.50
45283;DHT22;31023;44.994;1.796;2023-09-30T13:50:15;24.70;74.20
45283;DHT22;31023;44.994;1.796;2023-09-30T13:52:41;24.70;73.50
45283;DHT22;31023;44.994;1.796;2023-09-30T13:55:07;24.70;72.60
45283;DHT22;31023;44.994;1.796;2023-09-30T13:57:34;24.60;72.10
45283;DHT22;31023;44.994;1.796;2023-09-30T14:00:00;24.60;72.80
45283;DHT22;31023;44.994;1.796;2023-09-30T14:02:26;24.60;72.90
45283;DHT22;31023;44.994;1.796;2023-09-30T14:04:52;24.60;75.00
45283;DHT22;31023;44.994;1.796;2023-09-30T14:07:19;24.70;78.30
45283;DHT22;31023;44.994;1.796;2023-09-30T14:09:44;24.70;78.20
45283;DHT22;31023;44.994;1.796;2023-09-30T14:12:10;24.70;75.70
45283;DHT22;31023;44.994;1.796;2023-09-30T14:14:36;24.60;75.70
45283;DHT22;31023;44.994;1.796;2023-09-30T14:17:02;24.60;78.80
45283;DHT22;31023;44.994;1.796;2023-09-30T14:19:35;24.60;76.40
45283;DHT22;31023;44.994;1.796;2023-09-30T14:22:02;24.60;75.50
45283;DHT22;31023;44.994;1.796;2023-09-30T14:24:31;24.50;74.00
45283;DHT22;31023;44.994;1.796;2023-09-30T14:26:58;24.40;75.60
45283;DHT22;31023;44.994;1.796;2023-09-30T14:29:24;24.50;77.80
45283;DHT22;31023;44.994;1.796;2023-09-30T14:31:50;24.50;76.40
45283;DHT22;31023;44.994;1.796;2023-09-30T14:34:17;24.50;77.40
45283;DHT22;31023;44.994;1.796;2023-09-30T14:36:43;24.50;78.20
45283;DHT22;31023;44.994;1.796;2023-09-30T14:39:09;24.50;78.10
45283;DHT22;31023;44.994;1.796;2023-09-30T14:41:35;24.40;77.90
45283;DHT22;31023;44.994;1.796;2023-09-30T14:44:01;24.40;77.00
45283;DHT22;31023;44.994;1.796;2023-09-30T14:46:26;24.40;74.30
45283;DHT22;31023;44.994;1.796;2023-09-30T14:48:53;24.30;74.30
45283;DHT22;31023;44.994;1.796;2023-09-30T14:51:22;24.30;77.20
45283;DHT22;31023;44.994;1.796;2023-09-30T14:53:47;24.40;78.20
45283;DHT22;31023;44.994;1.796;2023-09-30T14:56:17;24.30;77.90
45283;DHT22;31023;44.994;1.796;2023-09-30T14:58:43;24.30;79.40
45283;DHT22;31023;44.994;1.796;2023-09-30T15:01:09;24.20;75.30
45283;DHT22;31023;44.994;1.796;2023-09-30T15:03:34;24.10;74.60
45283;DHT22;31023;44.994;1.796;2023-09-30T15:06:06;24.10;75.30
45283;DHT22;31023;44.994;1.796;2023-09-30T15:08:32;24.10;75.60
45283;DHT22;31023;44.994;1.796;2023-09-30T15:11:01;24.10;78.40
45283;DHT22;31023;44.994;1.796;2023-09-30T15:13:28;24.10;78.90
45283;DHT22;31023;44.994;1.796;2023-09-30T15:15:54;24.10;79.40
45283;DHT22;31023;44.994;1.796;2023-09-30T15:18:20;24.10;78.40
45283;DHT22;31023;44.994;1.796;2023-09-30T15:20:45;24.00;79.00
45283;DHT22;31023;44.994;1.796;2023-09-30T15:23:12;24.10;80.00
45283;DHT22;31023;44.994;1.796;2023-09-30T15:25:44;24.00;78.60
45283;DHT22;31023;44.994;1.796;2023-09-30T15:28:12;24.00;78.60
45283;DHT22;31023;44.994;1.796;2023-09-30T15:30:39;24.00;78.70
45283;DHT22;31023;44.994;1.796;2023-09-30T15:33:05;24.00;79.50
45283;DHT22;31023;44.994;1.796;2023-09-30T15:35:31;24.00;78.40
45283;DHT22;31023;44.994;1.796;2023-09-30T15:37:57;23.90;76.70
45283;DHT22;31023;44.994;1.796;2023-09-30T15:40:23;24.00;76.70
45283;DHT22;31023;44.994;1.796;2023-09-30T15:42:49;23.80;77.40